sensor_id;sensor_type;location;lat;lon;timestamp;pressure;altitude;pressure_sealevel;temperature
64488;BMP280;50864;45.050;39.014;2022-07-12T00:00:06;101140.34;;;22.17
64488;BMP280;50864;45.050;39.014;2022-07-12T00:02:32;101143.81;;;22.14
64488;BMP280;50864;45.050;39.014;2022-07-12T00:04:59;101143.41;;;22.12
64488;BMP280;50864;45.050;39.014;2022-07-12T00:07:25;101137.16;;;22.11
64488;BMP280;50864;45.050;39.014;2022-07-12T00:09:51;101137.88;;;22.08
64488;BMP280;50864;45.050;39.014;2022-07-12T00:12:18;101145.59;;;22.06
64488;BMP280;50864;45.050;39.014;2022-07-12T00:14:44;101136.53;;;22.02
64488;BMP280;50864;45.050;39.014;2022-07-12T00:17:10;101145.06;;;22.01
64488;BMP280;50864;45.050;39.014;2022-07-12T00:19:36;101137.59;;;21.98
64488;BMP280;50864;45.050;39.014;2022-07-12T00:22:02;101146.91;;;21.97
64488;BMP280;50864;45.050;39.014;2022-07-12T00:24:28;101145.00;;;21.97
64488;BMP280;50864;45.050;39.014;2022-07-12T00:26:55;101148.09;;;21.96
64488;BMP280;50864;45.050;39.014;2022-07-12T00:29:21;101148.09;;;21.96
64488;BMP280;50864;45.050;39.014;2022-07-12T00:31:47;101146.50;;;21.95
64488;BMP280;50864;45.050;39.014;2022-07-12T00:34:14;101147.62;;;21.94
64488;BMP280;50864;45.050;39.014;2022-07-12T00:36:40;101149.66;;;21.97
64488;BMP280;50864;45.050;39.014;2022-07-12T00:39:06;101158.63;;;21.97
64488;BMP280;50864;45.050;39.014;2022-07-12T00:41:32;101151.25;;;21.98
64488;BMP280;50864;45.050;39.014;2022-07-12T00:43:58;101159.06;;;21.99
64488;BMP280;50864;45.050;39.014;2022-07-12T00:46:24;101155.22;;;22.00
64488;BMP280;50864;45.050;39.014;2022-07-12T00:48:51;101155.97;;;22.01
64488;BMP280;50864;45.050;39.014;2022-07-12T00:51:18;101153.62;;;21.99
64488;BMP280;50864;45.050;39.014;2022-07-12T00:53:44;101153.97;;;21.98
64488;BMP280;50864;45.050;39.014;2022-07-12T00:56:12;101153.62;;;21.99
64488;BMP280;50864;45.050;39.014;2022-07-12T00:58:39;101164.16;;;22.01
64488;BMP280;50864;45.050;39.014;2022-07-12T01:01:05;101160.53;;;21.97
64488;BMP280;50864;45.050;39.014;2022-07-12T01:03:32;101167.50;;;21.94
64488;BMP280;50864;45.050;39.014;2022-07-12T01:05:58;101166.28;;;21.92
64488;BMP280;50864;45.050;39.014;2022-07-12T01:08:25;101166.22;;;21.88
64488;BMP280;50864;45.050;39.014;2022-07-12T01:10:52;101172.34;;;21.85
64488;BMP280;50864;45.050;39.014;2022-07-12T01:13:19;101169.19;;;21.83
64488;BMP280;50864;45.050;39.014;2022-07-12T01:15:47;101169.91;;;21.80
64488;BMP280;50864;45.050;39.014;2022-07-12T01:18:14;101172.97;;;21.78
64488;BMP280;50864;45.050;39.014;2022-07-12T01:20:41;101177.56;;;21.74
64488;BMP280;50864;45.050;39.014;2022-07-12T01:23:08;101170.88;;;21.72
64488;BMP280;50864;45.050;39.014;2022-07-12T01:25:35;101183.25;;;21.69
64488;BMP280;50864;45.050;39.014;2022-07-12T01:28:02;101180.91;;;21.68
64488;BMP280;50864;45.050;39.014;2022-07-12T01:30:28;101185.66;;;21.71
64488;BMP280;50864;45.050;39.014;2022-07-12T01:32:54;101185.22;;;21.69
64488;BMP280;50864;45.050;39.014;2022-07-12T01:35:21;101192.59;;;21.68
64488;BMP280;50864;45.050;39.014;2022-07-12T01:37:48;101191.00;;;21.67
64488;BMP280;50864;45.050;39.014;2022-07-12T01:40:15;101194.53;;;21.68
64488;BMP280;50864;45.050;39.014;2022-07-12T01:42:42;101194.94;;;21.70
64488;BMP280;50864;45.050;39.014;2022-07-12T01:45:11;101189.97;;;21.72
64488;BMP280;50864;45.050;39.014;2022-07-12T01:47:39;101202.44;;;21.73
64488;BMP280;50864;45.050;39.014;2022-07-12T01:50:07;101196.53;;;21.71
64488;BMP280;50864;45.050;39.014;2022-07-12T01:52:34;101199.25;;;21.71
64488;BMP280;50864;45.050;39.014;2022-07-12T01:55:01;101206.31;;;21.72
64488;BMP280;50864;45.050;39.014;2022-07-12T01:57:27;101205.50;;;21.71
64488;BMP280;50864;45.050;39.014;2022-07-12T01:59:54;101203.81;;;21.67
64488;BMP280;50864;45.050;39.014;2022-07-12T02:02:21;101202.94;;;21.63
64488;BMP280;50864;45.050;39.014;2022-07-12T02:04:48;101207.19;;;21.60
64488;BMP280;50864;45.050;39.014;2022-07-12T02:07:14;101207.53;;;21.59
64488;BMP280;50864;45.050;39.014;2022-07-12T02:09:40;101201.28;;;21.58
64488;BMP280;50864;45.050;39.014;2022-07-12T02:12:07;101208.66;;;21.58
64488;BMP280;50864;45.050;39.014;2022-07-12T02:14:33;101209.44;;;21.58
64488;BMP280;50864;45.050;39.014;2022-07-12T02:16:59;101211.38;;;21.58
64488;BMP280;50864;45.050;39.014;2022-07-12T02:19:25;101209.03;;;21.56
64488;BMP280;50864;45.050;39.014;2022-07-12T02:21:51;101217.53;;;21.55
64488;BMP280;50864;45.050;39.014;2022-07-12T02:24:18;101221.84;;;21.56
64488;BMP280;50864;45.050;39.014;2022-07-12T02:26:44;101224.22;;;21.57
64488;BMP280;50864;45.050;39.014;2022-07-12T02:29:10;101221.94;;;21.59
64488;BMP280;50864;45.050;39.014;2022-07-12T02:31:36;101230.53;;;21.61
64488;BMP280;50864;45.050;39.014;2022-07-12T02:34:03;101227.13;;;21.64
64488;BMP280;50864;45.050;39.014;2022-07-12T02:36:29;101230.72;;;21.68
64488;BMP280;50864;45.050;39.014;2022-07-12T02:38:55;101237.41;;;21.71
64488;BMP280;50864;45.050;39.014;2022-07-12T02:41:22;101234.34;;;21.72
64488;BMP280;50864;45.050;39.014;2022-07-12T02:43:48;101235.97;;;21.77
64488;BMP280;50864;45.050;39.014;2022-07-12T02:46:14;101235.03;;;21.85
64488;BMP280;50864;45.050;39.014;2022-07-12T02:48:41;101229.84;;;21.96
64488;BMP280;50864;45.050;39.014;2022-07-12T02:51:08;101233.28;;;22.08
64488;BMP280;50864;45.050;39.014;2022-07-12T02:53:35;101232.38;;;22.20
64488;BMP280;50864;45.050;39.014;2022-07-12T02:56:02;101234.63;;;22.33
64488;BMP280;50864;45.050;39.014;2022-07-12T02:58:28;101235.38;;;22.50
64488;BMP280;50864;45.050;39.014;2022-07-12T03:00:55;101233.44;;;22.69
64488;BMP280;50864;45.050;39.014;2022-07-12T03:03:21;101235.88;;;22.93
64488;BMP280;50864;45.050;39.014;2022-07-12T03:05:47;101239.69;;;23.31
64488;BMP280;50864;45.050;39.014;2022-07-12T03:08:14;101246.31;;;23.75
64488;BMP280;50864;45.050;39.014;2022-07-12T03:10:40;101243.44;;;24.17
64488;BMP280;50864;45.050;39.014;2022-07-12T03:13:06;101244.78;;;24.60
64488;BMP280;50864;45.050;39.014;2022-07-12T03:15:33;101246.09;;;25.06
64488;BMP280;50864;45.050;39.014;2022-07-12T03:18:00;101255.88;;;25.48
64488;BMP280;50864;45.050;39.014;2022-07-12T03:20:30;101253.03;;;25.84
64488;BMP280;50864;45.050;39.014;2022-07-12T03:22:56;101249.34;;;26.24
64488;BMP280;50864;45.050;39.014;2022-07-12T03:25:23;101254.19;;;26.59
64488;BMP280;50864;45.050;39.014;2022-07-12T03:27:49;101254.69;;;26.96
64488;BMP280;50864;45.050;39.014;2022-07-12T03:30:16;101249.59;;;27.34
64488;BMP280;50864;45.050;39.014;2022-07-12T03:32:42;101261.78;;;27.68
64488;BMP280;50864;45.050;39.014;2022-07-12T03:35:10;101257.75;;;27.97
64488;BMP280;50864;45.050;39.014;2022-07-12T03:37:43;101248.59;;;28.21
64488;BMP280;50864;45.050;39.014;2022-07-12T03:40:11;101257.50;;;28.57
64488;BMP280;50864;45.050;39.014;2022-07-12T03:42:37;101261.66;;;28.86
64488;BMP280;50864;45.050;39.014;2022-07-12T03:45:03;101253.94;;;29.18
64488;BMP280;50864;45.050;39.014;2022-07-12T03:47:30;101246.97;;;29.48
64488;BMP280;50864;45.050;39.014;2022-07-12T03:49:57;101252.88;;;29.83
64488;BMP280;50864;45.050;39.014;2022-07-12T03:52:24;101251.34;;;30.13
64488;BMP280;50864;45.050;39.014;2022-07-12T03:54:50;101258.50;;;30.37
64488;BMP280;50864;45.050;39.014;2022-07-12T03:57:16;101247.84;;;30.66
64488;BMP280;50864;45.050;39.014;2022-07-12T03:59:43;101248.06;;;31.01
64488;BMP280;50864;45.050;39.014;2022-07-12T04:02:10;101255.56;;;31.24
64488;BMP280;50864;45.050;39.014;2022-07-12T04:04:37;101259.50;;;31.46
64488;BMP280;50864;45.050;39.014;2022-07-12T04:07:04;101252.19;;;31.75
64488;BMP280;50864;45.050;39.014;2022-07-12T04:09:30;101262.25;;;32.05
64488;BMP280;50864;45.050;39.014;2022-07-12T04:11:57;101259.31;;;32.12
64488;BMP280;50864;45.050;39.014;2022-07-12T04:14:23;101253.31;;;32.33
64488;BMP280;50864;45.050;39.014;2022-07-12T04:16:49;101263.13;;;32.54
64488;BMP280;50864;45.050;39.014;2022-07-12T04:19:15;101258.69;;;32.72
64488;BMP280;50864;45.050;39.014;2022-07-12T04:21:41;101257.50;;;32.73
64488;BMP280;50864;45.050;39.014;2022-07-12T04:24:07;101260.53;;;32.79
64488;BMP280;50864;45.050;39.014;2022-07-12T04:26:34;101257.84;;;32.92
64488;BMP280;50864;45.050;39.014;2022-07-12T04:29:00;101257.47;;;33.06
64488;BMP280;50864;45.050;39.014;2022-07-12T04:31:26;101261.22;;;33.28
64488;BMP280;50864;45.050;39.014;2022-07-12T04:33:52;101262.88;;;33.54
64488;BMP280;50864;45.050;39.014;2022-07-12T19:00:21;101267.53;;;33.57
64488;BMP280;50864;45.050;39.014;2022-07-12T19:02:47;101267.53;;;33.57
64488;BMP280;50864;45.050;39.014;2022-07-12T19:05:13;101245.31;;;25.06
64488;BMP280;50864;45.050;39.014;2022-07-12T19:07:40;101244.13;;;25.07
64488;BMP280;50864;45.050;39.014;2022-07-12T19:10:06;101261.00;;;25.09
64488;BMP280;50864;45.050;39.014;2022-07-12T19:12:32;101261.78;;;25.09
64488;BMP280;50864;45.050;39.014;2022-07-12T19:15:04;101252.41;;;25.10
64488;BMP280;50864;45.050;39.014;2022-07-12T19:17:31;101258.28;;;25.12
64488;BMP280;50864;45.050;39.014;2022-07-12T19:19:57;101252.81;;;25.12
64488;BMP280;50864;45.050;39.014;2022-07-12T19:22:26;101254.37;;;25.13
64488;BMP280;50864;45.050;39.014;2022-07-12T19:24:53;101262.22;;;25.15
64488;BMP280;50864;45.050;39.014;2022-07-12T19:27:20;101259.03;;;25.13
64488;BMP280;50864;45.050;39.014;2022-07-12T19:29:47;101260.63;;;25.10
64488;BMP280;50864;45.050;39.014;2022-07-12T19:32:13;101252.78;;;25.09
64488;BMP280;50864;45.050;39.014;2022-07-12T19:34:40;101259.41;;;25.08
64488;BMP280;50864;45.050;39.014;2022-07-12T19:37:06;101269.59;;;25.07
64488;BMP280;50864;45.050;39.014;2022-07-12T19:39:32;101264.50;;;25.06
64488;BMP280;50864;45.050;39.014;2022-07-12T19:41:58;101265.25;;;25.06
64488;BMP280;50864;45.050;39.014;2022-07-12T19:44:24;101257.78;;;25.03
64488;BMP280;50864;45.050;39.014;2022-07-12T19:46:51;101256.22;;;25.02
64488;BMP280;50864;45.050;39.014;2022-07-12T19:49:17;101245.22;;;24.99
64488;BMP280;50864;45.050;39.014;2022-07-12T19:51:43;101245.62;;;24.97
64488;BMP280;50864;45.050;39.014;2022-07-12T19:54:14;101243.63;;;24.94
64488;BMP280;50864;45.050;39.014;2022-07-12T19:56:43;101245.16;;;24.92
64488;BMP280;50864;45.050;39.014;2022-07-12T19:59:09;101247.06;;;24.88
64488;BMP280;50864;45.050;39.014;2022-07-12T20:01:36;101249.00;;;24.84
64488;BMP280;50864;45.050;39.014;2022-07-12T20:04:05;101252.03;;;24.79
64488;BMP280;50864;45.050;39.014;2022-07-12T20:06:33;101244.56;;;24.76
64488;BMP280;50864;45.050;39.014;2022-07-12T20:08:59;101247.28;;;24.72
64488;BMP280;50864;45.050;39.014;2022-07-12T20:11:25;101246.09;;;24.69
64488;BMP280;50864;45.050;39.014;2022-07-12T20:13:51;101240.94;;;24.64
64488;BMP280;50864;45.050;39.014;2022-07-12T20:16:18;101239.31;;;24.60
64488;BMP280;50864;45.050;39.014;2022-07-12T20:18:45;101243.16;;;24.55
64488;BMP280;50864;45.050;39.014;2022-07-12T20:21:11;101242.31;;;24.51
64488;BMP280;50864;45.050;39.014;2022-07-12T20:23:37;101240.72;;;24.47
64488;BMP280;50864;45.050;39.014;2022-07-12T20:26:05;101232.03;;;24.41
64488;BMP280;50864;45.050;39.014;2022-07-12T20:28:31;101239.41;;;24.37
64488;BMP280;50864;45.050;39.014;2022-07-12T20:30:57;101238.97;;;24.32
64488;BMP280;50864;45.050;39.014;2022-07-12T20:33:23;101229.50;;;24.26
64488;BMP280;50864;45.050;39.014;2022-07-12T20:36:07;101232.16;;;24.19
64488;BMP280;50864;45.050;39.014;2022-07-12T20:38:34;101215.63;;;24.11
64488;BMP280;50864;45.050;39.014;2022-07-12T20:41:00;101215.97;;;24.10
64488;BMP280;50864;45.050;39.014;2022-07-12T20:43:39;101210.06;;;24.04
64488;BMP280;50864;45.050;39.014;2022-07-12T20:46:07;101209.16;;;23.97
64488;BMP280;50864;45.050;39.014;2022-07-12T20:48:33;101214.16;;;23.91
64488;BMP280;50864;45.050;39.014;2022-07-12T20:51:00;101214.03;;;23.84
64488;BMP280;50864;45.050;39.014;2022-07-12T20:53:26;101217.91;;;23.80
64488;BMP280;50864;45.050;39.014;2022-07-12T20:55:52;101219.78;;;23.76
64488;BMP280;50864;45.050;39.014;2022-07-12T20:58:19;101206.41;;;23.71
64488;BMP280;50864;45.050;39.014;2022-07-12T21:00:45;101211.03;;;23.67
64488;BMP280;50864;45.050;39.014;2022-07-12T21:03:12;101205.91;;;23.62
64488;BMP280;50864;45.050;39.014;2022-07-12T21:05:39;101207.75;;;23.58
64488;BMP280;50864;45.050;39.014;2022-07-12T21:08:05;101207.72;;;23.54
64488;BMP280;50864;45.050;39.014;2022-07-12T21:10:32;101201.75;;;23.48
64488;BMP280;50864;45.050;39.014;2022-07-12T21:13:01;101195.44;;;23.44
64488;BMP280;50864;45.050;39.014;2022-07-12T21:15:28;101190.72;;;23.41
64488;BMP280;50864;45.050;39.014;2022-07-12T21:17:54;101188.72;;;23.38
64488;BMP280;50864;45.050;39.014;2022-07-12T21:20:20;101195.72;;;23.36
64488;BMP280;50864;45.050;39.014;2022-07-12T21:22:46;101209.28;;;23.32
64488;BMP280;50864;45.050;39.014;2022-07-12T21:25:12;101192.06;;;23.28
64488;BMP280;50864;45.050;39.014;2022-07-12T21:27:38;101188.09;;;23.26
64488;BMP280;50864;45.050;39.014;2022-07-12T21:30:05;101195.09;;;23.23
64488;BMP280;50864;45.050;39.014;2022-07-12T21:32:32;101190.75;;;23.22
64488;BMP280;50864;45.050;39.014;2022-07-12T21:34:58;101181.72;;;23.18
64488;BMP280;50864;45.050;39.014;2022-07-12T21:37:25;101186.00;;;23.16
64488;BMP280;50864;45.050;39.014;2022-07-12T21:39:51;101190.22;;;23.13
64488;BMP280;50864;45.050;39.014;2022-07-12T21:42:17;101192.53;;;23.11
64488;BMP280;50864;45.050;39.014;2022-07-12T21:44:44;101176.84;;;23.08
64488;BMP280;50864;45.050;39.014;2022-07-12T21:47:10;101177.59;;;23.05
64488;BMP280;50864;45.050;39.014;2022-07-12T21:49:37;101182.63;;;23.03
64488;BMP280;50864;45.050;39.014;2022-07-12T21:52:03;101176.31;;;22.99
64488;BMP280;50864;45.050;39.014;2022-07-12T21:54:29;101174.28;;;22.96
64488;BMP280;50864;45.050;39.014;2022-07-12T21:56:55;101175.00;;;22.93
64488;BMP280;50864;45.050;39.014;2022-07-12T21:59:22;101173.38;;;22.88
64488;BMP280;50864;45.050;39.014;2022-07-12T22:01:49;101170.22;;;22.86
64488;BMP280;50864;45.050;39.014;2022-07-12T22:04:15;101180.34;;;22.86
64488;BMP280;50864;45.050;39.014;2022-07-12T22:06:41;101191.19;;;22.82
64488;BMP280;50864;45.050;39.014;2022-07-12T22:09:07;101183.34;;;22.81
64488;BMP280;50864;45.050;39.014;2022-07-12T22:11:33;101179.44;;;22.78
64488;BMP280;50864;45.050;39.014;2022-07-12T22:13:59;101171.19;;;22.75
64488;BMP280;50864;45.050;39.014;2022-07-12T22:16:25;101167.66;;;22.74
64488;BMP280;50864;45.050;39.014;2022-07-12T22:18:53;101163.34;;;22.73
64488;BMP280;50864;45.050;39.014;2022-07-12T22:21:19;101165.31;;;22.73
64488;BMP280;50864;45.050;39.014;2022-07-12T22:23:45;101154.72;;;22.71
64488;BMP280;50864;45.050;39.014;2022-07-12T22:26:12;101159.78;;;22.69
64488;BMP280;50864;45.050;39.014;2022-07-12T22:28:38;101152.28;;;22.66
64488;BMP280;50864;45.050;39.014;2022-07-12T22:31:04;101153.06;;;22.67
64488;BMP280;50864;45.050;39.014;2022-07-12T22:33:31;101152.22;;;22.63
64488;BMP280;50864;45.050;39.014;2022-07-12T22:35:57;101155.31;;;22.61
64488;BMP280;50864;45.050;39.014;2022-07-12T22:38:23;101165.00;;;22.59
64488;BMP280;50864;45.050;39.014;2022-07-12T22:40:51;101163.78;;;22.56
64488;BMP280;50864;45.050;39.014;2022-07-12T22:43:17;101160.22;;;22.52
64488;BMP280;50864;45.050;39.014;2022-07-12T22:45:43;101160.13;;;22.49
64488;BMP280;50864;45.050;39.014;2022-07-12T22:48:09;101167.44;;;22.45
64488;BMP280;50864;45.050;39.014;2022-07-12T22:50:35;101163.03;;;22.40
64488;BMP280;50864;45.050;39.014;2022-07-12T22:53:20;101167.66;;;22.36
64488;BMP280;50864;45.050;39.014;2022-07-12T22:55:46;101171.44;;;22.31
64488;BMP280;50864;45.050;39.014;2022-07-12T22:58:12;101162.37;;;22.27
64488;BMP280;50864;45.050;39.014;2022-07-12T23:00:39;101168.16;;;22.22
64488;BMP280;50864;45.050;39.014;2022-07-12T23:03:05;101168.06;;;22.19
64488;BMP280;50864;45.050;39.014;2022-07-12T23:05:31;101161.38;;;22.16
64488;BMP280;50864;45.050;39.014;2022-07-12T23:07:57;101160.53;;;22.12
64488;BMP280;50864;45.050;39.014;2022-07-12T23:10:23;101155.78;;;22.09
64488;BMP280;50864;45.050;39.014;2022-07-12T23:12:49;101160.34;;;22.05
64488;BMP280;50864;45.050;39.014;2022-07-12T23:15:16;101156.78;;;22.01
64488;BMP280;50864;45.050;39.014;2022-07-12T23:17:42;101157.16;;;22.00
64488;BMP280;50864;45.050;39.014;2022-07-12T23:20:08;101166.00;;;21.97
64488;BMP280;50864;45.050;39.014;2022-07-12T23:22:34;101162.06;;;21.94
64488;BMP280;50864;45.050;39.014;2022-07-12T23:25:00;101160.03;;;21.91
64488;BMP280;50864;45.050;39.014;2022-07-12T23:27:26;101162.31;;;21.89
64488;BMP280;50864;45.050;39.014;2022-07-12T23:29:53;101156.00;;;21.85
64488;BMP280;50864;45.050;39.014;2022-07-12T23:32:19;101164.09;;;21.81
64488;BMP280;50864;45.050;39.014;2022-07-12T23:34:45;101163.66;;;21.79
64488;BMP280;50864;45.050;39.014;2022-07-12T23:37:11;101165.59;;;21.79
64488;BMP280;50864;45.050;39.014;2022-07-12T23:39:37;101168.22;;;21.75
64488;BMP280;50864;45.050;39.014;2022-07-12T23:42:04;101175.63;;;21.75
64488;BMP280;50864;45.050;39.014;2022-07-12T23:44:30;101170.09;;;21.71
64488;BMP280;50864;45.050;39.014;2022-07-12T23:46:57;101175.44;;;21.68
64488;BMP280;50864;45.050;39.014;2022-07-12T23:49:23;101179.31;;;21.67
64488;BMP280;50864;45.050;39.014;2022-07-12T23:52:00;101183.16;;;21.66
64488;BMP280;50864;45.050;39.014;2022-07-12T23:54:27;101171.84;;;21.64
64488;BMP280;50864;45.050;39.014;2022-07-12T23:56:54;101175.22;;;21.57
64488;BMP280;50864;45.050;39.014;2022-07-12T23:59:20;101168.84;;;21.53
